createdAt,value
2022-10-23T00:01:31.016Z,2.80
2022-10-23T00:04:18.107Z,2.80
2022-10-23T00:06:45.204Z,2.23
2022-10-23T00:09:14.764Z,2.40
2022-10-23T00:11:47.851Z,2.83
2022-10-23T00:14:15.788Z,1.93
2022-10-23T00:16:42.649Z,2.73
2022-10-23T00:19:09.494Z,2.70
2022-10-23T00:21:36.259Z,2.23
2022-10-23T00:24:03.419Z,2.37
2022-10-23T00:26:30.206Z,2.37
2022-10-23T00:28:57.226Z,2.80
2022-10-23T00:31:24.618Z,2.40
2022-10-23T00:33:52.134Z,2.60
2022-10-23T00:36:20.696Z,2.90
2022-10-23T00:38:48.377Z,2.73
2022-10-23T00:41:22.650Z,2.20
2022-10-23T00:44:09.939Z,2.10
2022-10-23T00:46:39.109Z,2.30
2022-10-23T00:49:07.744Z,2.27
2022-10-23T00:51:47.368Z,1.93
2022-10-23T00:54:25.380Z,2.17
2022-10-23T00:56:58.394Z,2.33
2022-10-23T00:59:25.649Z,1.97
2022-10-23T01:01:52.474Z,2.03
2022-10-23T01:04:19.862Z,1.70
2022-10-23T01:07:08.257Z,1.87
2022-10-23T01:09:42.074Z,1.70
2022-10-23T01:12:15.173Z,2.50
2022-10-23T01:14:58.447Z,1.60
2022-10-23T01:17:47.822Z,2.30
2022-10-23T01:20:39.371Z,2.20
2022-10-23T01:23:20.263Z,2.13
2022-10-23T01:26:10.330Z,1.87
2022-10-23T01:28:48.167Z,2.00
2022-10-23T01:31:20.974Z,2.00
2022-10-23T01:33:51.549Z,2.00
2022-10-23T01:36:27.568Z,1.87
2022-10-23T01:39:00.480Z,2.20
2022-10-23T01:41:32.541Z,1.97
2022-10-23T01:44:33.771Z,1.97
2022-10-23T01:47:02.357Z,2.07
2022-10-23T01:49:31.905Z,1.80
2022-10-23T01:52:02.472Z,2.20
2022-10-23T01:54:32.777Z,2.10
2022-10-23T01:57:00.754Z,2.20
2022-10-23T01:59:35.443Z,1.70
2022-10-23T02:02:03.989Z,1.93
2022-10-23T02:04:36.950Z,2.00
2022-10-23T02:07:04.708Z,1.93
2022-10-23T02:09:32.279Z,2.27
2022-10-23T02:12:03.747Z,1.90
2022-10-23T02:14:35.606Z,1.60
2022-10-23T02:17:17.160Z,2.03
2022-10-23T02:19:50.991Z,1.97
2022-10-23T02:22:21.089Z,2.20
2022-10-23T02:24:57.038Z,2.00
2022-10-23T02:27:33.550Z,2.00
2022-10-23T02:30:07.031Z,2.17
2022-10-23T02:32:35.336Z,2.07
2022-10-23T02:35:02.948Z,2.10
2022-10-23T02:37:29.915Z,1.80
2022-10-23T02:39:57.715Z,1.80
2022-10-23T02:42:42.115Z,2.00
2022-10-23T02:45:12.960Z,2.00
2022-10-23T02:47:58.191Z,2.00
2022-10-23T02:50:43.212Z,1.90
2022-10-23T02:53:19.502Z,1.70
2022-10-23T02:56:13.221Z,1.53
2022-10-23T02:59:00.733Z,1.73
2022-10-23T03:01:39.251Z,1.70
2022-10-23T03:04:07.081Z,2.00
2022-10-23T03:06:34.097Z,1.80
2022-10-23T03:09:07.499Z,2.00
2022-10-23T03:11:34.445Z,1.77
2022-10-23T03:14:01.496Z,1.57
2022-10-23T03:16:29.518Z,1.77
2022-10-23T03:18:56.549Z,1.80
2022-10-23T03:21:23.688Z,2.33
2022-10-23T03:23:53.177Z,1.83
2022-10-23T03:26:28.158Z,1.60
2022-10-23T03:28:55.135Z,1.77
2022-10-23T03:31:23.489Z,2.10
2022-10-23T03:33:55.264Z,2.33
2022-10-23T03:36:22.072Z,1.70
2022-10-23T03:38:48.921Z,1.80
2022-10-23T03:41:15.713Z,2.00
2022-10-23T03:43:42.492Z,1.57
2022-10-23T03:46:12.630Z,1.60
2022-10-23T03:48:39.600Z,1.77
2022-10-23T03:51:06.648Z,1.90
2022-10-23T03:53:33.672Z,1.83
2022-10-23T03:56:02.854Z,1.53
2022-10-23T03:58:29.677Z,1.93
2022-10-23T04:00:56.502Z,1.70
2022-10-23T04:03:23.299Z,1.63
2022-10-23T04:05:52.285Z,1.47
2022-10-23T04:08:21.812Z,2.10
2022-10-23T04:10:52.048Z,2.10
2022-10-23T04:13:24.035Z,1.80
2022-10-23T04:15:52.124Z,1.80
2022-10-23T04:18:19.473Z,1.93
2022-10-23T04:20:50.756Z,1.70
2022-10-23T04:23:17.737Z,1.73
2022-10-23T04:28:23.116Z,1.67
2022-10-23T04:30:49.893Z,1.90
2022-10-23T04:33:16.764Z,1.80
2022-10-23T04:35:44.125Z,1.90
2022-10-23T04:38:11.485Z,1.47
2022-10-23T04:40:38.569Z,1.60
2022-10-23T04:43:05.466Z,1.50
2022-10-23T04:45:36.831Z,2.00
2022-10-23T04:48:03.863Z,2.13
2022-10-23T04:50:43.818Z,1.50
2022-10-23T04:53:33.134Z,2.60
2022-10-23T04:56:20.122Z,1.60
2022-10-23T04:58:55.924Z,1.17
2022-10-23T05:01:23.982Z,1.70
2022-10-23T05:03:51.411Z,1.70
2022-10-23T05:06:18.421Z,1.60
2022-10-23T05:09:04.022Z,1.77
2022-10-23T05:11:49.730Z,1.60
2022-10-23T05:14:20.599Z,1.67
2022-10-23T05:17:07.772Z,1.30
2022-10-23T05:19:39.497Z,1.63
2022-10-23T05:22:06.884Z,1.57
2022-10-23T05:24:54.009Z,1.77
2022-10-23T05:27:25.112Z,1.93
2022-10-23T05:29:54.022Z,1.57
2022-10-23T05:32:26.302Z,1.30
2022-10-23T05:34:53.946Z,1.70
2022-10-23T05:37:20.715Z,1.60
2022-10-23T05:39:48.076Z,1.87
2022-10-23T05:42:16.785Z,1.47
2022-10-23T05:44:45.976Z,1.50
2022-10-23T05:47:38.686Z,1.90
2022-10-23T05:50:17.298Z,1.30
2022-10-23T05:53:06.737Z,1.80
2022-10-23T05:55:48.045Z,1.60
2022-10-23T05:58:40.634Z,1.80
2022-10-23T06:01:25.977Z,1.40
2022-10-23T06:04:04.737Z,1.50
2022-10-23T06:06:51.514Z,1.33
2022-10-23T06:09:18.610Z,1.33
2022-10-23T06:11:47.082Z,1.33
2022-10-23T06:14:18.797Z,1.50
2022-10-23T06:16:45.692Z,1.50
2022-10-23T06:19:13.326Z,1.60
2022-10-23T06:21:42.609Z,1.83
2022-10-23T06:24:12.107Z,1.63
2022-10-23T06:26:52.395Z,1.50
2022-10-23T06:29:33.806Z,1.63
2022-10-23T06:32:01.088Z,1.83
2022-10-23T06:34:27.809Z,1.90
2022-10-23T06:36:54.691Z,1.67
2022-10-23T06:39:41.681Z,1.70
2022-10-23T06:42:13.565Z,1.53
2022-10-23T06:44:52.434Z,1.50
2022-10-23T06:47:38.001Z,1.53
2022-10-23T06:50:15.551Z,1.33
2022-10-23T06:52:47.275Z,1.53
2022-10-23T06:55:19.837Z,1.30
2022-10-23T06:57:47.035Z,1.80
2022-10-23T07:00:14.395Z,1.60
2022-10-23T07:02:52.351Z,1.57
2022-10-23T07:05:20.043Z,1.73
2022-10-23T07:07:47.161Z,1.67
2022-10-23T07:10:19.017Z,1.60
2022-10-23T07:12:51.560Z,1.50
2022-10-23T07:15:47.633Z,1.63
2022-10-23T07:18:21.038Z,1.40
2022-10-23T07:21:10.545Z,1.83
2022-10-23T07:23:39.249Z,1.80
2022-10-23T07:26:14.497Z,2.00
2022-10-23T07:28:43.115Z,1.60
2022-10-23T07:31:12.595Z,2.17
2022-10-23T07:33:58.177Z,1.57
2022-10-23T07:36:28.186Z,1.70
2022-10-23T07:38:55.149Z,1.90
2022-10-23T07:41:24.546Z,1.90
2022-10-23T07:43:51.601Z,1.60
2022-10-23T07:46:18.813Z,1.40
2022-10-23T07:48:46.116Z,1.40
2022-10-23T07:51:38.243Z,1.70
2022-10-23T07:54:05.504Z,1.60
2022-10-23T07:56:55.367Z,1.67
2022-10-23T07:59:27.708Z,1.70
2022-10-23T08:01:57.242Z,1.90
2022-10-23T08:04:30.076Z,1.90
2022-10-23T08:07:01.295Z,2.47
2022-10-23T08:09:31.723Z,2.03
2022-10-23T08:11:58.666Z,1.80
2022-10-23T08:14:27.891Z,1.93
2022-10-23T08:17:07.888Z,2.07
2022-10-23T08:20:26.411Z,1.60
2022-10-23T08:22:57.760Z,1.97
2022-10-23T08:25:26.425Z,1.70
2022-10-23T08:27:54.982Z,1.80
2022-10-23T08:30:21.904Z,2.03
2022-10-23T08:32:48.845Z,1.50
2022-10-23T08:35:15.980Z,1.90
2022-10-23T08:37:43.438Z,1.87
2022-10-23T08:40:30.913Z,2.30
2022-10-23T08:43:32.216Z,1.60
2022-10-23T08:46:17.978Z,2.37
2022-10-23T08:52:48.858Z,2.20
2022-10-23T08:55:24.994Z,2.13
2022-10-23T08:58:01.807Z,2.43
2022-10-23T09:00:28.699Z,2.30
2022-10-23T09:02:56.378Z,2.10
2022-10-23T09:05:32.473Z,1.83
2022-10-23T09:08:37.077Z,1.93
2022-10-23T09:11:30.240Z,2.03
2022-10-23T09:14:21.764Z,1.87
2022-10-23T09:17:09.043Z,2.10
2022-10-23T09:19:37.306Z,2.33
2022-10-23T09:22:05.494Z,2.40
2022-10-23T09:24:33.700Z,2.30
2022-10-23T09:27:00.844Z,2.67
2022-10-23T09:29:32.874Z,1.70
2022-10-23T09:32:01.117Z,2.10
2022-10-23T09:34:30.012Z,1.80
2022-10-23T09:37:02.346Z,1.77
2022-10-23T09:39:35.180Z,1.87
2022-10-23T09:42:14.959Z,1.80
2022-10-23T09:44:49.005Z,2.03
2022-10-23T09:47:20.871Z,2.50
2022-10-23T09:49:52.182Z,2.10
2022-10-23T09:52:19.955Z,2.40
2022-10-23T09:54:50.620Z,2.10
2022-10-23T09:57:38.391Z,2.00
2022-10-23T10:00:19.641Z,2.00
2022-10-23T10:03:00.114Z,2.00
2022-10-23T10:06:04.866Z,1.90
2022-10-23T10:08:44.572Z,1.90
2022-10-23T10:11:30.214Z,2.17
2022-10-23T10:14:45.229Z,2.20
2022-10-23T10:20:53.736Z,2.30
2022-10-23T10:23:24.133Z,2.00
2022-10-23T10:26:02.079Z,2.00
2022-10-23T10:28:52.736Z,2.43
2022-10-23T10:31:24.947Z,2.37
2022-10-23T10:34:28.362Z,2.30
2022-10-23T10:36:58.153Z,2.57
2022-10-23T10:39:34.501Z,1.93
2022-10-23T10:42:27.567Z,2.00
2022-10-23T10:45:16.742Z,2.27
2022-10-23T10:47:47.743Z,2.30
2022-10-23T10:50:31.627Z,2.60
2022-10-23T10:53:23.709Z,2.57
2022-10-23T10:55:55.115Z,2.97
2022-10-23T10:58:40.640Z,3.07
2022-10-23T11:01:33.981Z,2.77
2022-10-23T11:04:18.327Z,2.10
2022-10-23T11:06:46.596Z,2.60
2022-10-23T11:09:32.055Z,2.47
2022-10-23T11:11:59.020Z,2.50
2022-10-23T11:14:28.835Z,2.60
2022-10-23T11:17:24.321Z,2.80
2022-10-23T11:20:00.211Z,2.30
2022-10-23T11:22:37.522Z,2.10
2022-10-23T11:25:17.163Z,2.07
2022-10-23T11:27:53.111Z,2.17
2022-10-23T11:30:35.443Z,2.20
2022-10-23T11:33:17.343Z,2.40
2022-10-23T11:35:54.854Z,2.53
2022-10-23T11:38:35.849Z,2.07
2022-10-23T11:41:06.009Z,2.90
2022-10-23T11:43:48.276Z,2.67
2022-10-23T11:46:35.198Z,2.27
2022-10-23T11:49:06.215Z,2.50
2022-10-23T11:51:38.645Z,2.20
2022-10-23T11:54:15.374Z,2.00
2022-10-23T11:57:03.047Z,2.00
2022-10-23T11:59:34.199Z,1.80
2022-10-23T12:02:23.015Z,1.80
2022-10-23T12:04:51.985Z,1.97
2022-10-23T12:07:31.094Z,1.77
2022-10-23T12:10:03.256Z,2.47
2022-10-23T12:12:42.543Z,1.83
2022-10-23T12:15:22.966Z,1.80
2022-10-23T12:17:51.024Z,2.43
2022-10-23T12:20:48.505Z,3.10
2022-10-23T12:23:27.396Z,4.53
2022-10-23T12:26:12.827Z,2.37
2022-10-23T12:29:10.571Z,2.40
2022-10-23T12:32:07.922Z,2.37
2022-10-23T12:35:08.508Z,3.57
2022-10-23T12:37:44.451Z,2.50
2022-10-23T12:40:12.516Z,3.10
2022-10-23T12:42:40.005Z,2.73
2022-10-23T12:45:37.673Z,2.87
2022-10-23T12:48:52.557Z,3.13
2022-10-23T12:51:35.495Z,2.40
2022-10-23T12:54:03.970Z,2.37
2022-10-23T12:56:37.074Z,2.40
2022-10-23T12:59:05.147Z,2.27
2022-10-23T13:01:34.703Z,2.87
2022-10-23T13:04:11.151Z,2.60
2022-10-23T13:06:41.501Z,2.60
2022-10-23T13:09:18.832Z,2.60
2022-10-23T13:12:04.419Z,2.20
2022-10-23T13:14:42.049Z,2.50
2022-10-23T13:17:24.038Z,2.03
2022-10-23T13:20:07.536Z,2.00
2022-10-23T13:22:36.756Z,2.07
2022-10-23T13:25:19.052Z,2.90
2022-10-23T13:27:46.229Z,2.10
2022-10-23T13:30:33.564Z,2.50
2022-10-23T13:33:01.045Z,2.30
2022-10-23T13:35:31.438Z,2.50
2022-10-23T13:38:08.088Z,2.07
2022-10-23T13:40:39.853Z,2.10
2022-10-23T13:43:20.084Z,2.60
2022-10-23T13:46:00.784Z,2.07
2022-10-23T13:48:32.026Z,2.43
2022-10-23T13:51:30.862Z,2.10
2022-10-23T13:54:02.961Z,1.83
2022-10-23T13:56:35.050Z,2.10
2022-10-23T13:59:03.087Z,2.20
2022-10-23T14:01:34.398Z,2.20
2022-10-23T14:04:04.988Z,1.97
2022-10-23T14:06:34.335Z,1.90
2022-10-23T14:09:02.739Z,1.80
2022-10-23T14:11:30.671Z,1.70
2022-10-23T14:13:58.818Z,1.93
2022-10-23T14:16:30.574Z,3.67
2022-10-23T14:19:04.131Z,3.53
2022-10-23T14:21:43.146Z,2.73
2022-10-23T14:24:29.263Z,2.63
2022-10-23T14:27:00.302Z,2.73
2022-10-23T14:29:31.196Z,3.07
2022-10-23T14:31:58.122Z,2.60
2022-10-23T14:34:25.103Z,2.23
2022-10-23T14:37:04.029Z,2.20
2022-10-23T14:39:35.376Z,2.20
2022-10-23T14:42:02.369Z,2.20
2022-10-23T14:44:30.552Z,2.60
2022-10-23T14:46:59.628Z,2.27
2022-10-23T14:49:26.611Z,2.00
2022-10-23T14:51:53.314Z,2.43
2022-10-23T14:54:20.357Z,2.20
2022-10-23T14:56:47.172Z,2.10
2022-10-23T14:59:15.276Z,2.47
2022-10-23T15:01:45.897Z,2.37
2022-10-23T15:04:15.533Z,2.80
2022-10-23T15:06:42.760Z,2.57
2022-10-23T15:09:09.670Z,2.80
2022-10-23T15:11:36.519Z,2.80
2022-10-23T15:14:03.453Z,2.47
2022-10-23T15:16:30.284Z,2.93
2022-10-23T15:18:57.086Z,3.27
2022-10-23T15:21:23.961Z,2.33
2022-10-23T15:23:50.985Z,2.80
2022-10-23T15:26:23.950Z,3.83
2022-10-23T15:28:56.236Z,3.40
2022-10-23T15:31:47.547Z,3.33
2022-10-23T15:34:24.588Z,3.77
2022-10-23T15:36:52.084Z,3.53
2022-10-23T15:39:23.005Z,3.43
2022-10-23T15:41:55.249Z,2.47
2022-10-23T15:44:25.441Z,3.47
2022-10-23T15:46:52.355Z,3.00
2022-10-23T15:49:19.947Z,3.10
2022-10-23T15:51:46.777Z,2.43
2022-10-23T15:54:35.944Z,2.77
2022-10-23T15:57:16.437Z,2.60
2022-10-23T15:59:51.174Z,2.50
2022-10-23T16:02:18.071Z,2.90
2022-10-23T16:04:44.870Z,2.40
2022-10-23T16:07:11.802Z,2.33
2022-10-23T16:09:38.769Z,2.17
2022-10-23T16:12:05.829Z,2.80
2022-10-23T16:14:34.753Z,2.50
2022-10-23T16:17:01.550Z,2.50
2022-10-23T16:19:28.652Z,2.63
2022-10-23T16:22:01.914Z,2.87
2022-10-23T16:24:31.571Z,2.83
2022-10-23T16:27:07.897Z,2.60
2022-10-23T16:29:43.618Z,2.17
2022-10-23T16:32:10.294Z,2.17
2022-10-23T16:34:37.420Z,2.67
2022-10-23T16:37:04.405Z,2.33
2022-10-23T16:39:47.841Z,2.53
2022-10-23T16:42:33.760Z,2.20
2022-10-23T16:45:19.655Z,2.20
2022-10-23T16:47:46.418Z,2.37
2022-10-23T16:50:13.361Z,2.20
2022-10-23T16:52:43.309Z,2.03
2022-10-23T16:55:20.889Z,1.70
2022-10-23T16:58:01.007Z,1.80
2022-10-23T17:00:38.666Z,2.10
2022-10-23T17:03:15.934Z,2.00
2022-10-23T17:05:42.894Z,2.23
2022-10-23T17:08:09.554Z,1.93
2022-10-23T17:10:41.862Z,2.60
2022-10-23T17:13:09.269Z,2.70
2022-10-23T17:15:36.262Z,1.90
2022-10-23T17:18:03.073Z,2.10
2022-10-23T17:20:30.502Z,2.37
2022-10-23T17:22:59.301Z,2.70
2022-10-23T17:25:30.717Z,2.40
2022-10-23T17:28:08.368Z,2.23
2022-10-23T17:30:38.363Z,2.30
2022-10-23T17:33:05.207Z,2.20
2022-10-23T17:35:31.964Z,2.20
2022-10-23T17:37:58.914Z,1.80
2022-10-23T17:40:28.233Z,1.90
2022-10-23T17:42:54.998Z,1.73
2022-10-23T17:45:22.027Z,1.67
2022-10-23T17:47:49.203Z,1.80
2022-10-23T17:50:15.994Z,1.73
2022-10-23T17:52:43.082Z,1.53
2022-10-23T17:55:10.143Z,1.60
2022-10-23T17:57:37.167Z,1.60
2022-10-23T18:00:05.298Z,1.80
2022-10-23T18:02:39.480Z,1.90
2022-10-23T18:05:06.742Z,1.70
2022-10-23T18:07:35.496Z,1.57
2022-10-23T18:10:02.667Z,2.13
2022-10-23T18:12:30.201Z,1.60
2022-10-23T18:14:57.566Z,1.50
2022-10-23T18:17:24.363Z,1.90
2022-10-23T18:19:51.601Z,1.90
2022-10-23T18:24:45.589Z,1.73
2022-10-23T18:27:12.499Z,1.83
2022-10-23T18:29:43.381Z,2.13
2022-10-23T18:32:32.701Z,1.90
2022-10-23T18:35:26.436Z,1.97
2022-10-23T18:38:01.308Z,2.03
2022-10-23T18:40:28.278Z,4.13
2022-10-23T18:42:55.702Z,2.37
2022-10-23T18:45:22.935Z,2.20
2022-10-23T18:47:50.172Z,2.37
2022-10-23T18:50:17.453Z,2.30
2022-10-23T18:52:44.607Z,2.70
2022-10-23T18:55:11.658Z,2.67
2022-10-23T18:57:38.530Z,2.60
2022-10-23T19:00:07.897Z,3.20
2022-10-23T19:02:35.999Z,2.47
2022-10-23T19:05:03.990Z,2.70
2022-10-23T19:07:31.053Z,2.23
2022-10-23T19:09:57.936Z,3.10
2022-10-23T19:12:24.914Z,2.30
2022-10-23T19:14:52.426Z,2.83
2022-10-23T19:17:22.749Z,2.60
2022-10-23T19:19:54.846Z,3.40
2022-10-23T19:22:22.370Z,2.83
2022-10-23T19:24:52.674Z,2.47
2022-10-23T19:27:19.971Z,2.90
2022-10-23T19:29:48.797Z,2.07
2022-10-23T19:32:15.872Z,3.03
2022-10-23T19:34:42.822Z,2.80
2022-10-23T19:37:10.025Z,2.33
2022-10-23T19:39:36.924Z,2.10
2022-10-23T19:42:04.007Z,2.43
2022-10-23T19:44:30.913Z,2.33
2022-10-23T19:47:14.745Z,2.00
2022-10-23T19:50:05.345Z,2.37
2022-10-23T19:52:36.007Z,1.80
2022-10-23T19:55:03.650Z,2.07
2022-10-23T19:57:33.998Z,2.20
2022-10-23T20:00:01.619Z,2.33
2022-10-23T20:02:28.902Z,2.17
2022-10-23T20:04:55.934Z,2.10
2022-10-23T20:07:22.671Z,2.07
2022-10-23T20:09:49.570Z,2.73
2022-10-23T20:12:17.363Z,2.33
2022-10-23T20:14:44.895Z,2.70
2022-10-23T20:17:19.640Z,2.63
2022-10-23T20:19:53.582Z,3.03
2022-10-23T20:22:34.013Z,2.80
2022-10-23T20:25:01.218Z,4.03
2022-10-23T20:27:28.696Z,3.27
2022-10-23T20:29:55.503Z,2.70
2022-10-23T20:32:27.458Z,2.53
2022-10-23T20:34:54.473Z,2.90
2022-10-23T20:37:21.638Z,3.00
2022-10-23T20:39:48.877Z,3.53
2022-10-23T20:42:16.719Z,2.93
2022-10-23T20:45:01.330Z,2.63
2022-10-23T20:47:31.257Z,3.90
2022-10-23T20:50:21.004Z,2.90
2022-10-23T20:52:55.880Z,3.20
2022-10-23T20:55:24.272Z,2.80
2022-10-23T20:57:51.495Z,3.00
2022-10-23T21:00:20.927Z,3.17
2022-10-23T21:02:49.957Z,2.70
2022-10-23T21:05:19.746Z,2.70
2022-10-23T21:07:47.164Z,2.50
2022-10-23T21:10:14.534Z,3.00
2022-10-23T21:12:42.310Z,2.80
2022-10-23T21:15:11.679Z,2.90
2022-10-23T21:17:42.436Z,3.37
2022-10-23T21:20:15.500Z,2.97
2022-10-23T21:22:48.387Z,2.50
2022-10-23T21:25:15.607Z,2.60
2022-10-23T21:27:44.227Z,3.03
2022-10-23T21:30:13.802Z,2.37
2022-10-23T21:32:40.870Z,2.90
2022-10-23T21:35:08.737Z,2.73
2022-10-23T21:37:40.438Z,2.60
2022-10-23T21:40:08.475Z,2.63
2022-10-23T21:42:40.831Z,2.53
2022-10-23T21:45:13.925Z,2.50
2022-10-23T21:47:44.877Z,2.37
2022-10-23T21:50:24.202Z,2.30
2022-10-23T21:52:56.023Z,2.17
2022-10-23T21:55:30.734Z,2.50
2022-10-23T21:58:04.656Z,1.80
2022-10-23T22:00:33.863Z,2.87
2022-10-23T22:03:01.256Z,2.30
2022-10-23T22:05:30.535Z,2.07
2022-10-23T22:07:57.588Z,2.20
2022-10-23T22:10:24.789Z,2.10
2022-10-23T22:12:52.032Z,2.43
2022-10-23T22:15:20.292Z,2.10
2022-10-23T22:17:48.948Z,1.90
2022-10-23T22:20:20.351Z,1.80
2022-10-23T22:22:58.166Z,2.20
2022-10-23T22:25:28.190Z,2.00
2022-10-23T22:27:54.946Z,2.20
2022-10-23T22:30:25.012Z,2.10
2022-10-23T22:32:51.692Z,2.07
2022-10-23T22:35:18.458Z,2.10
2022-10-23T22:37:45.191Z,1.70
2022-10-23T22:40:12.978Z,1.67
2022-10-23T22:42:39.867Z,1.80
2022-10-23T22:45:07.311Z,2.10
2022-10-23T22:47:34.165Z,1.60
2022-10-23T22:50:01.015Z,1.47
2022-10-23T22:52:27.823Z,1.50
2022-10-23T22:54:54.992Z,1.50
2022-10-23T22:57:21.872Z,1.83
2022-10-23T22:59:49.032Z,1.47
2022-10-23T23:02:15.815Z,1.50
2022-10-23T23:04:43.171Z,1.70
2022-10-23T23:07:17.003Z,1.37
2022-10-23T23:09:47.072Z,1.60
2022-10-23T23:12:15.401Z,1.70
2022-10-23T23:14:43.566Z,1.40
2022-10-23T23:17:14.699Z,1.37
2022-10-23T23:19:44.530Z,1.07
2022-10-23T23:22:11.276Z,1.53
2022-10-23T23:24:38.261Z,1.50
2022-10-23T23:27:05.089Z,1.50
2022-10-23T23:29:32.133Z,1.70
2022-10-23T23:31:58.969Z,1.60
2022-10-23T23:34:26.007Z,1.77
2022-10-23T23:36:52.695Z,1.60
2022-10-23T23:39:19.408Z,1.87
2022-10-23T23:41:46.078Z,2.23
2022-10-23T23:44:13.218Z,1.80
2022-10-23T23:46:39.863Z,1.60
2022-10-23T23:49:06.633Z,1.67
2022-10-23T23:51:33.485Z,1.80
2022-10-23T23:54:00.443Z,1.70
2022-10-23T23:56:28.097Z,1.90
2022-10-23T23:58:54.795Z,2.10
